• Join FlightAware (Why Join?)
  • Login
  • US Flag 
01:04AM EDT


 

Airport Tracker/Info


-or-


 

Live Flight TrackerFlight Track Log ✈ WJA1211 ✈ 14-Apr-2013 ✈ KLGA - CYYZ

Flight Track Log - Related Links

Times and Time Zones

All times are in EDT time to prevent confusion due to time zone crossing. See the WJA1211 flight status page for this flight to view local times or setup timezone preferences in your user account.

Time Position Orientation Groundspeed Altitude Reporting Facility
EDT Latitude Longitude Course Direction KTS MPH feet Rate Location/Type
06:12PM 40.8000 -73.8667 358° North 148 170 1,000  Level New York TRACON
06:14PM 40.9125 -73.8711 358° North 201 231 7,600 2,700 Climbing New York Center
06:15PM 40.9444 -73.9247 308° West 206 237 10,400 2,340 Climbing New York Center
06:16PM 41.0117 -73.9883 324° Northwest 249 287 12,400 2,160 Climbing New York Center
06:17PM 41.0725 -74.0464 324° Northwest 291 335 14,700 1,800 Climbing New York Center
06:18PM 41.1517 -74.1192 325° Northwest 302 348 16,000 600 Climbing New York Center
06:19PM 41.2144 -74.1772 325° Northwest 302 348 16,000  Level New York Center
06:20PM 41.2917 -74.2503 325° Northwest 308 354 16,000  Level New York Center
06:21PM 41.3564 -74.3089 326° Northwest 308 354 16,100 1,200 Climbing New York Center
06:22PM 41.4244 -74.3983 315° West 308 354 18,500 2,280 Climbing New York Center
06:23PM 41.4672 -74.4947 301° West 320 368 20,800 2,520 Climbing New York Center
06:24PM 41.5117 -74.6053 298° West 332 382 23,600 2,640 Climbing New York Center
06:25PM 41.5642 -74.7192 302° West 350 403 26,100 2,640 Climbing New York Center
06:26PM 41.6122 -74.8356 299° West 355 409 28,900 1,860 Climbing New York Center
06:27PM 41.6625 -74.9497 301° West 355 409 30,000 540 Climbing New York Center
06:28PM 41.7103 -75.0694 298° West 355 409 30,000  Level New York Center
06:29PM 41.7622 -75.1867 301° West 360 414 30,000  Level New York Center
06:30PM 41.8097 -75.3014 299° West 360 414 30,000  Level New York Center
06:31PM 41.8594 -75.4161 300° West 360 414 30,000  Level New York Center
06:32PM 41.9069 -75.5336 299° West 360 414 30,000  Level New York Center
06:34PM 41.9958 -75.7489 299° West 362 417 30,000  Level Cleveland Center
06:35PM 42.0425 -75.8683 298° West 362 417 30,000  Level Cleveland Center
06:36PM 42.0908 -75.9797 300° West 357 411 30,000  Level Cleveland Center
06:37PM 42.1372 -76.0967 298° West 357 411 30,000  Level Cleveland Center
06:38PM 42.1792 -76.2086 297° West 357 411 30,000  Level Cleveland Center
06:39PM 42.2214 -76.3347 294° West 357 411 30,000  Level Cleveland Center
06:40PM 42.2592 -76.4558 293° West 357 411 30,000  Level Cleveland Center
06:41PM 42.2967 -76.5769 293° West 352 405 30,000  Level Cleveland Center
06:42PM 42.3364 -76.6981 294° West 352 405 30,000  Level Cleveland Center
06:43PM 42.3758 -76.8222 293° West 352 405 30,000  Level Cleveland Center
06:44PM 42.4000 -76.9167 289° West 360 414 30,000  Level Toronto Center
06:45PM 42.4500 -77.0500 297° West 370 426 30,000  Level Toronto Center
06:46PM 42.4833 -77.1667 291° West 370 426 30,000  Level Toronto Center
06:47PM 42.5167 -77.3000 289° West 370 426 30,000  Level Toronto Center
06:48PM 42.5742 -77.4589 296° West 370 426 30,000  Level Cleveland Center
06:49PM 42.6131 -77.5869 292° West 370 426 30,000  Level Cleveland Center
06:50PM 42.6517 -77.7150 292° West 370 426 30,000  Level Cleveland Center
06:51PM 42.6947 -77.8542 293° West 370 426 30,000 -300 Level Cleveland Center
06:52PM 42.7333 -77.9856 292° West 365 420 29,500 -780 Descending Cleveland Center
06:53PM 42.7736 -78.1167 293° West 365 420 28,500 -1,020 Descending Cleveland Center
06:54PM 42.8117 -78.2483 292° West 371 427 27,500 -1,020 Descending Cleveland Center
06:55PM 42.8497 -78.3772 292° West 371 427 26,500 -1,200 Descending Cleveland Center
06:56PM 42.8875 -78.5033 292° West 364 419 25,200 -1,200 Descending Cleveland Center
06:57PM 42.9208 -78.6156 292° West 347 399 24,100 -1,080 Descending Cleveland Center
06:58PM 42.9661 -78.7136 302° West 322 371 23,100 -1,020 Descending Cleveland Center
06:59PM 43.0133 -78.8031 306° West 306 352 22,100 -1,200 Descending Cleveland Center
07:01PM 43.1000 -78.9500 309° West 290 334 19,600 -1,440 Descending Toronto Center
07:02PM 43.1500 -79.0333 309° West 280 322 17,900 -1,560 Descending Toronto Center
07:03PM 43.1833 -79.1333 295° West 270 311 16,500 -1,500 Descending Toronto Center
07:04PM 43.2333 -79.2000 316° Northwest 260 299 14,900 -1,500 Descending Toronto Center
07:05PM 43.2667 -79.2833 299° West 250 288 13,500 -1,380 Descending Toronto Center
07:06PM 43.3167 -79.3333 324° Northwest 240 276 12,200 -780 Descending Toronto Center
07:07PM 43.3667 -79.3500 346° North 230 265 12,000 -180 Descending Toronto Center
07:08PM 43.4333 -79.4000 331° Northwest 220 253 11,900 -540 Descending Toronto Center
07:09PM 43.5000 -79.4000 360° North 230 265 11,000 -1,200 Descending Toronto Center
07:10PM 43.5500 -79.4000 360° North 230 265 9,600 -1,320 Descending Toronto Center
07:11PM 43.5833 -79.4667 305° West 220 253 8,400 -1,200 Descending Toronto Center
07:12PM 43.5667 -79.5333 251° West 210 242 7,200 -1,260 Descending Toronto Center
07:13PM 43.5333 -79.6167 241° Southwest 220 253 5,900 -1,320 Descending Toronto Center
07:14PM 43.4833 -79.6833 224° Southwest 230 265 4,600 -1,200 Descending Toronto Center
07:15PM 43.4667 -79.7500 251° West 220 253 3,600 -840 Descending Toronto Center
07:16PM 43.5000 -79.8000 313° West 200 230 3,000 -300 Descending Toronto Center
07:17PM 43.5500 -79.7500 36° Northeast 180 207 3,000 -240 Level Toronto Center
07:18PM 43.5833 -79.7000 47° Northeast 180 207 2,600 -720 Descending Toronto Center
07:19PM 43.6167 -79.6500 47° Northeast 170 196 1,600 -900 Descending Toronto Center
07:20PM 43.6333 -79.6167 55° Northeast 140 161 900 -720 Descending Toronto Center